createdAt,value
2019-05-25T00:02:01.931Z,94655.85
2019-05-25T00:04:28.319Z,94652.00
2019-05-25T00:06:54.776Z,94651.06
2019-05-25T00:09:21.107Z,94659.95
2019-05-25T00:11:47.439Z,94650.63
2019-05-25T00:14:13.890Z,94654.23
2019-05-25T00:16:40.210Z,94652.02
2019-05-25T00:19:06.609Z,94655.52
2019-05-25T00:21:32.941Z,94653.91
2019-05-25T00:24:11.256Z,94658.69
2019-05-25T00:26:25.600Z,94658.80
2019-05-25T00:28:51.928Z,94661.50
2019-05-25T00:31:18.292Z,94661.15
2019-05-25T00:36:10.941Z,94667.00
2019-05-25T00:38:37.353Z,94672.86
2019-05-25T00:41:03.623Z,94665.71
2019-05-25T00:43:29.956Z,94666.17
2019-05-25T00:45:56.291Z,94665.02
2019-05-25T00:48:22.652Z,94668.42
2019-05-25T00:50:49.005Z,94674.84
2019-05-25T00:53:15.339Z,94676.95
2019-05-25T00:55:41.687Z,94676.23
2019-05-25T00:58:08.025Z,94679.03
2019-05-25T01:00:34.365Z,94676.45
2019-05-25T01:03:00.770Z,94682.89
2019-05-25T01:05:27.100Z,94681.14
2019-05-25T01:10:19.775Z,94675.91
2019-05-25T01:12:46.109Z,94674.48
2019-05-25T01:15:12.437Z,94676.23
2019-05-25T01:17:38.772Z,94682.66
2019-05-25T01:20:05.143Z,94677.06
2019-05-25T01:22:31.534Z,94678.48
2019-05-25T01:24:57.890Z,94680.09
2019-05-25T01:27:24.239Z,94678.48
2019-05-25T01:29:50.599Z,94684.41
2019-05-25T01:32:16.902Z,94689.56
2019-05-25T01:34:43.241Z,94688.05
2019-05-25T01:37:09.564Z,94685.94
2019-05-25T01:39:35.931Z,94687.23
2019-05-25T01:44:28.631Z,94678.93
2019-05-25T01:46:55.024Z,94684.89
2019-05-25T01:49:21.361Z,94684.20
2019-05-25T01:51:47.710Z,94680.45
2019-05-25T01:54:14.041Z,94683.03
2019-05-25T01:56:40.376Z,94681.05
2019-05-25T01:59:06.739Z,94675.66
2019-05-25T02:01:33.149Z,94678.23
2019-05-25T02:03:59.583Z,94678.00
2019-05-25T02:06:25.967Z,94674.48
2019-05-25T02:08:52.295Z,94675.20
2019-05-25T02:11:18.650Z,94680.34
2019-05-25T02:13:45.063Z,94680.08
2019-05-25T02:18:37.759Z,94686.18
2019-05-25T02:21:04.093Z,94686.18
2019-05-25T02:23:30.423Z,94689.67
2019-05-25T02:25:56.772Z,94682.89
2019-05-25T02:28:23.184Z,94685.46
2019-05-25T02:30:49.478Z,94690.27
2019-05-25T02:33:15.807Z,94689.55
2019-05-25T02:35:42.268Z,94689.55
2019-05-25T02:38:08.610Z,94690.51
2019-05-25T02:40:34.966Z,94689.80
2019-05-25T02:43:01.268Z,94688.86
2019-05-25T02:45:27.609Z,94691.90
2019-05-25T02:47:53.939Z,94688.18
2019-05-25T02:50:20.264Z,94685.47
2019-05-25T02:52:46.633Z,94688.18
2019-05-25T02:55:12.977Z,94690.39
2019-05-25T02:57:39.353Z,94689.44
2019-05-25T03:00:05.739Z,94688.16
2019-05-25T03:02:33.235Z,94693.30
2019-05-25T03:04:58.353Z,94695.05
2019-05-25T03:07:24.737Z,94696.69
2019-05-25T03:09:51.109Z,94693.89
2019-05-25T03:12:17.448Z,94700.31
2019-05-25T03:14:43.812Z,94699.14
2019-05-25T03:17:10.156Z,94704.64
2019-05-25T03:19:36.516Z,94709.41
2019-05-25T03:22:02.850Z,94708.03
2019-05-25T03:24:29.196Z,94704.77
2019-05-25T03:26:55.524Z,94716.89
2019-05-25T03:29:21.880Z,94708.27
2019-05-25T03:31:48.233Z,94710.02
2019-05-25T03:34:14.594Z,94712.94
2019-05-25T03:36:40.956Z,94710.94
2019-05-25T03:39:07.285Z,94716.80
2019-05-25T03:41:33.837Z,94717.25
2019-05-25T03:44:00.204Z,94712.94
2019-05-25T03:46:26.565Z,94718.08
2019-05-25T03:48:52.931Z,94724.61
2019-05-25T03:51:19.275Z,94724.97
2019-05-25T03:53:45.638Z,94730.92
2019-05-25T03:56:12.095Z,94730.56
2019-05-25T03:58:38.425Z,94739.56
2019-05-25T04:01:04.759Z,94733.95
2019-05-25T04:03:31.114Z,94733.73
2019-05-25T04:05:57.436Z,94732.67
2019-05-25T04:08:23.811Z,94734.06
2019-05-25T04:10:50.161Z,94730.11
2019-05-25T04:13:16.601Z,94736.30
2019-05-25T04:15:42.946Z,94726.50
2019-05-25T04:18:09.314Z,94731.27
2019-05-25T04:20:35.632Z,94734.55
2019-05-25T04:23:02.043Z,94731.30
2019-05-25T04:25:28.372Z,94732.11
2019-05-25T04:27:54.704Z,94735.86
2019-05-25T04:30:21.033Z,94729.97
2019-05-25T04:35:13.751Z,94736.34
2019-05-25T04:37:40.144Z,94734.58
2019-05-25T04:40:06.530Z,94739.73
2019-05-25T04:42:32.863Z,94743.97
2019-05-25T04:44:59.232Z,94741.97
2019-05-25T04:47:27.173Z,94743.02
2019-05-25T04:49:51.931Z,94743.05
2019-05-25T04:52:18.295Z,94743.83
2019-05-25T04:54:44.638Z,94738.69
2019-05-25T04:57:11.000Z,94740.91
2019-05-25T04:59:37.342Z,94747.37
2019-05-25T05:02:03.690Z,94741.16
2019-05-25T05:04:30.030Z,94748.03
2019-05-25T05:06:56.435Z,94748.49
2019-05-25T05:09:22.782Z,94752.00
2019-05-25T05:11:49.061Z,94757.97
2019-05-25T05:14:15.448Z,94763.09
2019-05-25T05:16:41.825Z,94762.64
2019-05-25T05:19:08.182Z,94767.54
2019-05-25T05:21:34.527Z,94767.08
2019-05-25T05:24:00.889Z,94771.66
2019-05-25T05:26:27.237Z,94775.76
2019-05-25T05:28:53.633Z,94776.20
2019-05-25T05:31:23.515Z,94772.70
2019-05-25T05:33:46.289Z,94774.31
2019-05-25T05:36:12.755Z,94769.41
2019-05-25T05:38:39.091Z,94769.52
2019-05-25T05:41:05.507Z,94771.73
2019-05-25T05:43:31.855Z,94771.38
2019-05-25T05:45:58.192Z,94769.38
2019-05-25T05:48:24.571Z,94768.45
2019-05-25T05:50:50.884Z,94777.90
2019-05-25T05:53:17.280Z,94768.42
2019-05-25T05:55:43.554Z,94771.43
2019-05-25T05:58:09.903Z,94772.14
2019-05-25T06:00:36.231Z,94779.05
2019-05-25T06:03:02.560Z,94779.27
2019-05-25T06:05:28.888Z,94774.00
2019-05-25T06:07:55.273Z,94780.98
2019-05-25T06:10:21.657Z,94779.59
2019-05-25T06:12:47.969Z,94774.19
2019-05-25T06:15:14.272Z,94777.45
2019-05-25T06:17:40.612Z,94782.13
2019-05-25T06:20:06.991Z,94786.31
2019-05-25T06:22:33.355Z,94782.59
2019-05-25T06:24:59.680Z,94785.99
2019-05-25T06:27:27.785Z,94788.78
2019-05-25T06:29:52.418Z,94788.89
2019-05-25T06:32:18.779Z,94779.87
2019-05-25T06:34:45.125Z,94789.11
2019-05-25T06:37:11.482Z,94790.07
2019-05-25T06:39:37.829Z,94797.66
2019-05-25T06:42:04.230Z,94794.26
2019-05-25T06:44:30.580Z,94793.08
2019-05-25T06:46:56.987Z,94791.79
2019-05-25T06:49:23.268Z,94797.98
2019-05-25T06:51:49.651Z,94795.87
2019-05-25T06:54:16.033Z,94786.49
2019-05-25T06:56:42.423Z,94796.08
2019-05-25T06:59:08.743Z,94795.86
2019-05-25T07:01:35.073Z,94794.46
2019-05-25T07:04:01.422Z,94795.70
2019-05-25T07:06:27.760Z,94793.56
2019-05-25T07:08:54.095Z,94792.84
2019-05-25T07:13:46.773Z,94791.25
2019-05-25T07:16:13.110Z,94793.10
2019-05-25T07:18:39.453Z,94790.63
2019-05-25T07:21:05.780Z,94787.94
2019-05-25T07:23:32.145Z,94795.99
2019-05-25T07:25:58.490Z,94797.63
2019-05-25T07:28:24.840Z,94807.34
2019-05-25T07:30:51.224Z,94812.64
2019-05-25T07:33:17.575Z,94803.97
2019-05-25T07:35:43.907Z,94803.97
2019-05-25T07:38:10.235Z,94805.26
2019-05-25T07:40:36.582Z,94807.95
2019-05-25T07:43:02.937Z,94797.52
2019-05-25T07:45:29.302Z,94792.58
2019-05-25T07:47:55.714Z,94791.41
2019-05-25T07:50:22.068Z,94799.95
2019-05-25T07:52:48.546Z,94800.73
2019-05-25T07:55:14.875Z,94801.55
2019-05-25T07:57:41.202Z,94803.20
2019-05-25T08:00:07.534Z,94805.88
2019-05-25T08:02:33.894Z,94806.09
2019-05-25T08:05:00.325Z,94817.43
2019-05-25T08:07:26.665Z,94820.33
2019-05-25T08:09:53.010Z,94818.31
2019-05-25T08:12:19.407Z,94822.89
2019-05-25T08:14:45.767Z,94822.38
2019-05-25T08:17:12.104Z,94827.07
2019-05-25T08:19:38.431Z,94819.80
2019-05-25T08:22:04.873Z,94832.08
2019-05-25T08:24:31.221Z,94832.56
2019-05-25T08:26:57.592Z,94833.13
2019-05-25T08:29:23.959Z,94830.96
2019-05-25T08:31:50.296Z,94831.11
2019-05-25T08:34:16.645Z,94835.39
2019-05-25T08:36:43.041Z,94834.40
2019-05-25T08:39:09.420Z,94834.95
2019-05-25T08:41:35.755Z,94837.39
2019-05-25T08:44:04.368Z,94840.21
2019-05-25T08:46:28.463Z,94835.84
2019-05-25T08:48:54.826Z,94840.51
2019-05-25T08:51:21.155Z,94840.01
2019-05-25T08:53:47.523Z,94845.26
2019-05-25T08:56:13.888Z,94852.42
2019-05-25T08:58:48.504Z,94850.63
2019-05-25T09:01:06.568Z,94856.82
2019-05-25T09:03:32.953Z,94858.11
2019-05-25T09:05:59.239Z,94862.22
2019-05-25T09:08:25.579Z,94862.48
2019-05-25T09:10:51.934Z,94857.23
2019-05-25T09:13:18.256Z,94855.12
2019-05-25T09:15:44.594Z,94861.78
2019-05-25T09:18:10.967Z,94866.27
2019-05-25T09:20:37.254Z,94862.51
2019-05-25T09:23:03.592Z,94863.21
2019-05-25T09:25:29.944Z,94863.53
2019-05-25T09:27:56.288Z,94861.92
2019-05-25T09:30:22.637Z,94859.61
2019-05-25T09:32:49.019Z,94869.05
2019-05-25T09:35:15.321Z,94867.30
2019-05-25T09:40:07.999Z,94870.28
2019-05-25T09:42:34.332Z,94868.05
2019-05-25T09:45:00.703Z,94873.22
2019-05-25T09:47:27.069Z,94867.59
2019-05-25T09:49:53.412Z,94868.27
2019-05-25T09:52:19.756Z,94873.58
2019-05-25T09:54:46.150Z,94871.46
2019-05-25T09:57:12.487Z,94871.05
2019-05-25T10:02:05.188Z,94866.70
2019-05-25T10:04:31.590Z,94862.02
2019-05-25T10:06:57.954Z,94872.58
2019-05-25T10:09:24.310Z,94891.59
2019-05-25T10:14:16.991Z,94906.35
2019-05-25T10:16:43.329Z,94907.44
2019-05-25T10:19:09.680Z,94900.54
2019-05-25T10:21:36.026Z,94898.10
2019-05-25T10:24:02.442Z,94893.31
2019-05-25T10:26:28.848Z,94887.22
2019-05-25T10:28:55.150Z,94886.66
2019-05-25T10:31:21.482Z,94884.75
2019-05-25T10:33:47.805Z,94878.91
2019-05-25T10:36:14.179Z,94883.40
2019-05-25T10:38:40.568Z,94880.00
2019-05-25T10:41:06.904Z,94878.82
2019-05-25T10:43:33.253Z,94874.95
2019-05-25T10:45:59.671Z,94870.25
2019-05-25T10:48:25.968Z,94863.33
2019-05-25T10:50:52.358Z,94864.16
2019-05-25T10:53:18.686Z,94861.92
2019-05-25T10:55:45.034Z,94859.08
2019-05-25T10:58:11.372Z,94858.11
2019-05-25T11:00:37.747Z,94852.69
2019-05-25T11:03:04.141Z,94853.03
2019-05-25T11:05:30.464Z,94847.66
2019-05-25T11:07:56.821Z,94845.47
2019-05-25T11:10:23.187Z,94847.93
2019-05-25T11:12:49.520Z,94847.31
2019-05-25T11:15:15.903Z,94837.89
2019-05-25T11:17:42.273Z,94843.64
2019-05-25T11:20:08.651Z,94846.64
2019-05-25T11:22:34.987Z,94853.45
2019-05-25T11:25:01.419Z,94849.98
2019-05-25T11:27:27.739Z,94838.83
2019-05-25T11:30:07.815Z,94833.47
2019-05-25T11:32:20.433Z,94837.72
2019-05-25T11:34:46.823Z,94838.63
2019-05-25T11:37:15.687Z,94852.45
2019-05-25T11:39:39.560Z,94849.63
2019-05-25T11:44:32.305Z,94852.48
2019-05-25T11:46:58.657Z,94855.27
2019-05-25T11:49:25.078Z,94848.13
2019-05-25T11:51:51.449Z,94852.01
2019-05-25T11:54:17.779Z,94861.10
2019-05-25T11:56:44.269Z,94859.08
2019-05-25T11:59:10.630Z,94861.05
2019-05-25T12:01:36.996Z,94863.52
2019-05-25T12:04:03.345Z,94870.08
2019-05-25T12:06:29.718Z,94864.09
2019-05-25T12:08:56.048Z,94862.48
2019-05-25T12:11:22.373Z,94858.38
2019-05-25T12:13:48.722Z,94861.05
2019-05-25T12:18:41.435Z,94854.03
2019-05-25T12:21:07.817Z,94854.38
2019-05-25T12:23:34.171Z,94853.45
2019-05-25T12:26:00.525Z,94851.53
2019-05-25T12:28:26.872Z,94860.02
2019-05-25T12:30:53.283Z,94852.89
2019-05-25T12:33:19.594Z,94848.28
2019-05-25T12:35:45.981Z,94846.28
2019-05-25T12:38:12.319Z,94842.41
2019-05-25T12:40:52.858Z,94842.12
2019-05-25T12:43:05.065Z,94838.34
2019-05-25T12:45:31.383Z,94834.34
2019-05-25T12:47:57.721Z,94839.16
2019-05-25T12:52:50.592Z,94839.27
2019-05-25T12:55:17.003Z,94844.44
2019-05-25T12:57:43.334Z,94844.44
2019-05-25T13:00:16.121Z,94840.01
2019-05-25T13:02:36.031Z,94849.75
2019-05-25T13:05:02.386Z,94845.73
2019-05-25T13:07:28.715Z,94843.88
2019-05-25T13:09:55.095Z,94845.91
2019-05-25T13:12:21.448Z,94853.63
2019-05-25T13:14:47.777Z,94849.75
2019-05-25T13:17:14.115Z,94852.80
2019-05-25T13:19:40.523Z,94841.45
2019-05-25T13:22:06.907Z,94838.25
2019-05-25T13:26:59.571Z,94838.98
2019-05-25T13:29:25.912Z,94839.45
2019-05-25T13:31:52.271Z,94840.51
2019-05-25T13:34:18.642Z,94842.27
2019-05-25T13:36:44.991Z,94841.23
2019-05-25T13:39:11.373Z,94841.30
2019-05-25T13:41:37.767Z,94839.59
2019-05-25T13:44:04.075Z,94833.81
2019-05-25T13:46:30.426Z,94838.59
2019-05-25T13:48:56.837Z,94832.94
2019-05-25T13:51:23.155Z,94826.80
2019-05-25T13:53:49.507Z,94832.20
2019-05-25T13:56:15.890Z,94831.85
2019-05-25T13:58:42.223Z,94835.25
2019-05-25T14:01:08.585Z,94831.70
2019-05-25T14:03:34.909Z,94829.73
2019-05-25T14:06:01.280Z,94823.44
2019-05-25T14:08:27.625Z,94824.84
2019-05-25T14:10:54.059Z,94827.07
2019-05-25T14:13:20.409Z,94820.97
2019-05-25T14:15:46.776Z,94820.15
2019-05-25T14:18:13.072Z,94819.20
2019-05-25T14:20:39.447Z,94819.33
2019-05-25T14:23:05.829Z,94818.59
2019-05-25T14:25:32.119Z,94821.64
2019-05-25T14:27:58.448Z,94817.92
2019-05-25T14:30:24.803Z,94820.35
2019-05-25T14:35:17.548Z,94823.44
2019-05-25T14:37:43.876Z,94827.89
2019-05-25T14:40:11.531Z,94825.52
2019-05-25T14:42:36.644Z,94826.80
2019-05-25T14:45:02.946Z,94829.18
2019-05-25T14:47:29.367Z,94824.72
2019-05-25T14:49:55.669Z,94828.80
2019-05-25T14:52:22.044Z,94822.14
2019-05-25T14:54:48.386Z,94820.35
2019-05-25T14:57:14.762Z,94819.20
2019-05-25T14:59:41.159Z,94824.58
2019-05-25T15:02:07.505Z,94823.64
2019-05-25T15:04:33.907Z,94821.53
2019-05-25T15:09:26.640Z,94816.48
2019-05-25T15:11:53.909Z,94814.25
2019-05-25T15:14:19.322Z,94812.14
2019-05-25T15:16:45.773Z,94816.83
2019-05-25T15:19:12.061Z,94813.58
2019-05-25T15:21:38.490Z,94812.49
2019-05-25T15:24:04.895Z,94812.14
2019-05-25T15:26:31.241Z,94814.05
2019-05-25T15:28:57.595Z,94817.04
2019-05-25T15:31:23.971Z,94821.38
2019-05-25T15:33:50.341Z,94822.00
2019-05-25T15:36:16.728Z,94824.22
2019-05-25T15:38:43.081Z,94826.22
2019-05-25T15:43:35.763Z,94823.29
2019-05-25T15:46:02.141Z,94822.81
2019-05-25T15:48:28.508Z,94824.46
2019-05-25T15:50:54.849Z,94831.23
2019-05-25T15:53:21.211Z,94825.87
2019-05-25T15:55:47.566Z,94824.93
2019-05-25T15:58:13.917Z,94831.50
2019-05-25T16:00:40.270Z,94832.47
2019-05-25T16:03:06.584Z,94837.12
2019-05-25T16:05:32.983Z,94835.34
2019-05-25T16:07:59.355Z,94835.73
2019-05-25T16:10:25.687Z,94841.23
2019-05-25T16:12:52.087Z,94838.92
2019-05-25T16:17:44.896Z,94841.50
2019-05-25T16:20:11.244Z,94849.77
2019-05-25T16:22:37.577Z,94851.77
2019-05-25T16:25:03.927Z,94851.21
2019-05-25T16:27:30.261Z,94859.42
2019-05-25T16:29:56.606Z,94861.33
2019-05-25T16:32:23.016Z,94858.39
2019-05-25T16:34:49.312Z,94857.92
2019-05-25T16:37:15.705Z,94866.34
2019-05-25T16:39:41.998Z,94864.37
2019-05-25T16:42:08.381Z,94864.23
2019-05-25T16:44:34.718Z,94867.43
2019-05-25T16:47:01.111Z,94866.75
2019-05-25T16:51:53.740Z,94870.02
2019-05-25T16:54:20.114Z,94868.60
2019-05-25T16:56:46.515Z,94878.78
2019-05-25T16:59:12.899Z,94874.23
2019-05-25T17:01:48.024Z,94873.41
2019-05-25T17:04:05.630Z,94881.41
2019-05-25T17:06:32.916Z,94877.90
2019-05-25T17:08:58.455Z,94877.28
2019-05-25T17:11:24.856Z,94875.84
2019-05-25T17:13:51.291Z,94884.20
2019-05-25T17:16:17.608Z,94887.14
2019-05-25T17:18:44.016Z,94891.02
2019-05-25T17:21:10.424Z,94890.05
2019-05-25T17:26:03.182Z,94880.69
2019-05-25T17:28:29.522Z,94885.38
2019-05-25T17:30:55.903Z,94887.97
2019-05-25T17:33:22.277Z,94889.16
2019-05-25T17:35:48.635Z,94896.70
2019-05-25T17:38:14.964Z,94896.70
2019-05-25T17:40:41.297Z,94896.34
2019-05-25T17:43:07.682Z,94894.02
2019-05-25T17:45:34.034Z,94901.50
2019-05-25T17:48:00.396Z,94898.71
2019-05-25T17:50:26.761Z,94902.11
2019-05-25T17:52:53.215Z,94910.09
2019-05-25T17:55:19.540Z,94915.13
2019-05-25T18:00:12.247Z,94919.12
2019-05-25T18:02:38.652Z,94917.15
2019-05-25T18:05:04.953Z,94917.03
2019-05-25T18:07:31.301Z,94913.53
2019-05-25T18:09:57.642Z,94915.50
2019-05-25T18:12:24.026Z,94916.00
2019-05-25T18:14:50.395Z,94910.28
2019-05-25T18:17:16.726Z,94911.42
2019-05-25T18:19:43.177Z,94917.41
2019-05-25T18:22:09.486Z,94920.61
2019-05-25T18:24:35.827Z,94928.92
2019-05-25T18:27:02.175Z,94931.64
2019-05-25T18:29:28.498Z,94932.72
2019-05-25T18:31:54.900Z,94930.94
2019-05-25T18:34:22.466Z,94936.34
2019-05-25T18:36:47.590Z,94934.59
2019-05-25T18:39:13.953Z,94940.44
2019-05-25T18:41:40.340Z,94945.59
2019-05-25T18:44:06.690Z,94953.81
2019-05-25T18:46:33.011Z,94953.02
2019-05-25T18:48:59.393Z,94957.47
2019-05-25T18:51:25.734Z,94963.23
2019-05-25T18:53:52.175Z,94959.14
2019-05-25T18:56:18.471Z,94961.02
2019-05-25T18:58:44.854Z,94960.55
2019-05-25T19:01:11.205Z,94961.84
2019-05-25T19:03:37.549Z,94964.88
2019-05-25T19:06:04.029Z,94969.94
2019-05-25T19:08:30.370Z,94973.23
2019-05-25T19:10:56.773Z,94986.70
2019-05-25T19:13:23.168Z,94980.04
2019-05-25T19:18:15.804Z,94987.78
2019-05-25T19:20:42.163Z,94982.41
2019-05-25T19:23:08.509Z,94984.88
2019-05-25T19:25:35.003Z,94982.05
2019-05-25T19:28:01.356Z,94987.34
2019-05-25T19:30:27.722Z,94994.62
2019-05-25T19:32:54.041Z,94989.34
2019-05-25T19:35:20.405Z,94990.64
2019-05-25T19:37:46.732Z,95000.13
2019-05-25T19:40:13.071Z,94997.83
2019-05-25T19:42:39.428Z,95002.52
2019-05-25T19:45:09.250Z,95007.70
2019-05-25T19:47:35.632Z,95003.61
2019-05-25T19:52:28.322Z,95008.90
2019-05-25T19:54:54.859Z,95003.88
2019-05-25T19:57:21.220Z,95008.59
2019-05-25T19:59:47.555Z,95013.50
2019-05-25T20:02:13.944Z,95019.14
2019-05-25T20:04:40.245Z,95015.84
2019-05-25T20:07:06.746Z,95016.29
2019-05-25T20:09:33.083Z,95018.05
2019-05-25T20:11:59.413Z,95019.93
2019-05-25T20:14:25.791Z,95024.74
2019-05-25T20:16:52.143Z,95027.31
2019-05-25T20:19:18.487Z,95029.07
2019-05-25T20:21:44.825Z,95031.66
2019-05-25T20:24:11.223Z,95036.22
2019-05-25T20:26:37.554Z,95041.61
2019-05-25T20:29:03.833Z,95046.77
2019-05-25T20:31:30.179Z,95048.30
2019-05-25T20:33:56.655Z,95050.63
2019-05-25T20:36:23.076Z,95047.11
2019-05-25T20:38:49.432Z,95046.87
2019-05-25T20:41:15.771Z,95049.69
2019-05-25T20:43:42.097Z,95044.44
2019-05-25T20:46:08.454Z,95044.31
2019-05-25T20:48:34.767Z,95043.02
2019-05-25T20:51:01.147Z,95041.61
2019-05-25T20:53:27.475Z,95040.78
2019-05-25T20:55:53.817Z,95046.89
2019-05-25T20:58:20.164Z,95041.25
2019-05-25T21:00:46.504Z,95045.02
2019-05-25T21:03:12.835Z,95047.09
2019-05-25T21:05:49.798Z,95051.33
2019-05-25T21:08:05.773Z,95045.69
2019-05-25T21:10:32.061Z,95047.80
2019-05-25T21:12:58.405Z,95037.63
2019-05-25T21:15:24.773Z,95044.63
2019-05-25T21:17:51.175Z,95048.63
2019-05-25T21:22:43.927Z,95054.23
2019-05-25T21:25:10.259Z,95058.33
2019-05-25T21:27:36.625Z,95060.55
2019-05-25T21:30:02.976Z,95056.22
2019-05-25T21:32:29.313Z,95058.53
2019-05-25T21:34:55.657Z,95057.14
2019-05-25T21:37:22.029Z,95059.22
2019-05-25T21:39:48.445Z,95060.38
2019-05-25T21:42:14.737Z,95065.98
2019-05-25T21:44:41.069Z,95063.31
2019-05-25T21:47:07.399Z,95065.62
2019-05-25T21:49:33.791Z,95057.11
2019-05-25T21:52:00.120Z,95065.98
2019-05-25T21:54:26.514Z,95067.86
2019-05-25T21:56:52.881Z,95062.58
2019-05-25T21:59:19.215Z,95064.56
2019-05-25T22:01:45.633Z,95071.46
2019-05-25T22:04:11.944Z,95065.25
2019-05-25T22:06:38.349Z,95071.58
2019-05-25T22:09:04.757Z,95068.05
2019-05-25T22:11:31.141Z,95071.31
2019-05-25T22:13:57.522Z,95073.89
2019-05-25T22:16:23.801Z,95073.09
2019-05-25T22:18:50.166Z,95077.66
2019-05-25T22:21:16.578Z,95080.55
2019-05-25T22:23:42.887Z,95079.85
2019-05-25T22:26:09.219Z,95089.19
2019-05-25T22:28:44.390Z,95086.73
2019-05-25T22:31:01.915Z,95088.26
2019-05-25T22:33:28.317Z,95089.08
2019-05-25T22:35:54.775Z,95088.34
2019-05-25T22:38:21.097Z,95087.66
2019-05-25T22:40:47.434Z,95086.59
2019-05-25T22:43:13.773Z,95084.25
2019-05-25T22:45:40.153Z,95078.14
2019-05-25T22:48:06.480Z,95077.58
2019-05-25T22:52:59.147Z,95085.86
2019-05-25T22:55:25.546Z,95070.78
2019-05-25T22:57:51.841Z,95076.62
2019-05-25T23:00:18.190Z,95077.57
2019-05-25T23:02:44.515Z,95086.20
2019-05-25T23:05:10.928Z,95086.30
2019-05-25T23:07:37.262Z,95089.83
2019-05-25T23:10:03.613Z,95084.91
2019-05-25T23:12:29.952Z,95085.83
2019-05-25T23:14:56.327Z,95088.64
2019-05-25T23:17:22.662Z,95086.29
2019-05-25T23:19:48.996Z,95089.32
2019-05-25T23:22:15.362Z,95087.20
2019-05-25T23:24:41.690Z,95088.98
2019-05-25T23:27:08.090Z,95090.73
2019-05-25T23:29:34.431Z,95091.28
2019-05-25T23:32:00.786Z,95090.69
2019-05-25T23:34:27.114Z,95088.38
2019-05-25T23:36:53.512Z,95087.65
2019-05-25T23:39:19.838Z,95089.98
2019-05-25T23:41:46.203Z,95085.65
2019-05-25T23:44:12.532Z,95092.31
2019-05-25T23:49:05.207Z,95095.56
2019-05-25T23:51:31.590Z,95102.82
2019-05-25T23:53:57.945Z,95103.74
2019-05-25T23:56:25.352Z,95103.65
2019-05-25T23:58:50.616Z,95095.56
